sensor_id;sensor_type;location;lat;lon;timestamp;temperature;humidity
22456;DHT22;11395;53.204;6.502;2022-10-16T00:09:31;22.70;69.80
22456;DHT22;11395;53.204;6.502;2022-10-16T00:11:57;22.60;70.80
22456;DHT22;11395;53.204;6.502;2022-10-16T00:14:23;22.60;71.00
22456;DHT22;11395;53.204;6.502;2022-10-16T00:16:49;22.50;71.00
22456;DHT22;11395;53.204;6.502;2022-10-16T00:19:15;22.50;71.00
22456;DHT22;11395;53.204;6.502;2022-10-16T00:21:42;22.60;70.90
22456;DHT22;11395;53.204;6.502;2022-10-16T00:24:09;22.60;70.90
22456;DHT22;11395;53.204;6.502;2022-10-16T00:26:37;22.60;70.90
22456;DHT22;11395;53.204;6.502;2022-10-16T00:29:04;22.60;70.70
22456;DHT22;11395;53.204;6.502;2022-10-16T00:31:30;22.60;70.60
22456;DHT22;11395;53.204;6.502;2022-10-16T00:33:57;22.60;70.50
22456;DHT22;11395;53.204;6.502;2022-10-16T00:36:25;22.70;70.60
22456;DHT22;11395;53.204;6.502;2022-10-16T00:38:56;22.60;70.50
22456;DHT22;11395;53.204;6.502;2022-10-16T00:41:25;22.60;70.50
22456;DHT22;11395;53.204;6.502;2022-10-16T00:43:53;22.60;70.50
22456;DHT22;11395;53.204;6.502;2022-10-16T00:49:09;22.60;70.40
22456;DHT22;11395;53.204;6.502;2022-10-16T00:51:41;22.60;70.40
22456;DHT22;11395;53.204;6.502;2022-10-16T00:54:16;22.60;70.40
22456;DHT22;11395;53.204;6.502;2022-10-16T00:56:44;22.60;70.50
22456;DHT22;11395;53.204;6.502;2022-10-16T00:59:25;22.60;70.50
22456;DHT22;11395;53.204;6.502;2022-10-16T01:09:52;22.40;70.40
22456;DHT22;11395;53.204;6.502;2022-10-16T01:12:42;22.20;71.40
22456;DHT22;11395;53.204;6.502;2022-10-16T01:15:37;22.20;71.60
22456;DHT22;11395;53.204;6.502;2022-10-16T01:20:45;22.20;71.50
22456;DHT22;11395;53.204;6.502;2022-10-16T01:23:25;22.20;71.30
22456;DHT22;11395;53.204;6.502;2022-10-16T01:29:03;22.30;71.30
22456;DHT22;11395;53.204;6.502;2022-10-16T01:31:36;22.30;71.20
22456;DHT22;11395;53.204;6.502;2022-10-16T01:34:16;22.30;71.20
22456;DHT22;11395;53.204;6.502;2022-10-16T01:36:56;22.30;71.10
22456;DHT22;11395;53.204;6.502;2022-10-16T01:39:28;22.30;71.20
22456;DHT22;11395;53.204;6.502;2022-10-16T01:42:22;22.30;71.10
22456;DHT22;11395;53.204;6.502;2022-10-16T01:44:47;22.20;71.10
22456;DHT22;11395;53.204;6.502;2022-10-16T01:47:15;22.30;71.10
22456;DHT22;11395;53.204;6.502;2022-10-16T01:49:43;22.20;71.00
22456;DHT22;11395;53.204;6.502;2022-10-16T01:52:14;22.20;71.00
22456;DHT22;11395;53.204;6.502;2022-10-16T01:54:43;22.20;71.00
22456;DHT22;11395;53.204;6.502;2022-10-16T01:57:12;22.20;71.00
22456;DHT22;11395;53.204;6.502;2022-10-16T01:59:46;22.20;71.00
22456;DHT22;11395;53.204;6.502;2022-10-16T02:02:15;22.20;71.00
22456;DHT22;11395;53.204;6.502;2022-10-16T02:04:46;22.20;71.00
22456;DHT22;11395;53.204;6.502;2022-10-16T02:07:13;22.10;71.00
22456;DHT22;11395;53.204;6.502;2022-10-16T02:09:40;22.10;71.00
22456;DHT22;11395;53.204;6.502;2022-10-16T02:12:15;22.10;71.10
22456;DHT22;11395;53.204;6.502;2022-10-16T02:14:44;22.10;71.10
22456;DHT22;11395;53.204;6.502;2022-10-16T02:17:12;22.10;71.10
22456;DHT22;11395;53.204;6.502;2022-10-16T02:19:40;22.10;71.20
22456;DHT22;11395;53.204;6.502;2022-10-16T02:22:09;22.10;71.20
22456;DHT22;11395;53.204;6.502;2022-10-16T02:24:43;22.10;71.20
22456;DHT22;11395;53.204;6.502;2022-10-16T02:27:24;22.10;71.20
22456;DHT22;11395;53.204;6.502;2022-10-16T02:30:06;22.10;71.30
22456;DHT22;11395;53.204;6.502;2022-10-16T02:32:36;22.00;71.20
22456;DHT22;11395;53.204;6.502;2022-10-16T02:35:04;22.00;71.20
22456;DHT22;11395;53.204;6.502;2022-10-16T02:37:31;22.00;71.30
22456;DHT22;11395;53.204;6.502;2022-10-16T02:39:58;22.00;71.20
22456;DHT22;11395;53.204;6.502;2022-10-16T02:42:35;22.00;71.20
22456;DHT22;11395;53.204;6.502;2022-10-16T02:45:02;22.00;71.20
22456;DHT22;11395;53.204;6.502;2022-10-16T02:47:29;22.00;71.20
22456;DHT22;11395;53.204;6.502;2022-10-16T02:49:55;22.00;71.30
22456;DHT22;11395;53.204;6.502;2022-10-16T02:52:21;22.00;71.20
22456;DHT22;11395;53.204;6.502;2022-10-16T02:54:48;22.00;71.20
22456;DHT22;11395;53.204;6.502;2022-10-16T02:57:14;22.00;71.30
22456;DHT22;11395;53.204;6.502;2022-10-16T02:59:40;22.00;71.20
22456;DHT22;11395;53.204;6.502;2022-10-16T03:02:06;21.90;71.20
22456;DHT22;11395;53.204;6.502;2022-10-16T03:04:32;21.90;71.20
22456;DHT22;11395;53.204;6.502;2022-10-16T03:06:59;21.90;71.30
22456;DHT22;11395;53.204;6.502;2022-10-16T03:09:26;21.90;71.30
22456;DHT22;11395;53.204;6.502;2022-10-16T03:11:52;21.90;71.30
22456;DHT22;11395;53.204;6.502;2022-10-16T03:14:18;21.90;71.20
22456;DHT22;11395;53.204;6.502;2022-10-16T03:16:44;21.90;71.30
22456;DHT22;11395;53.204;6.502;2022-10-16T03:19:10;21.90;71.30
22456;DHT22;11395;53.204;6.502;2022-10-16T03:21:36;21.90;71.30
22456;DHT22;11395;53.204;6.502;2022-10-16T03:24:03;21.90;71.30
22456;DHT22;11395;53.204;6.502;2022-10-16T03:26:29;21.80;71.30
22456;DHT22;11395;53.204;6.502;2022-10-16T03:28:55;21.90;71.40
22456;DHT22;11395;53.204;6.502;2022-10-16T03:31:21;21.80;71.30
22456;DHT22;11395;53.204;6.502;2022-10-16T03:33:48;21.80;71.30
22456;DHT22;11395;53.204;6.502;2022-10-16T03:36:14;21.80;71.30
22456;DHT22;11395;53.204;6.502;2022-10-16T03:38:40;21.80;71.30
22456;DHT22;11395;53.204;6.502;2022-10-16T03:41:06;21.80;71.30
22456;DHT22;11395;53.204;6.502;2022-10-16T03:43:33;21.80;71.40
22456;DHT22;11395;53.204;6.502;2022-10-16T03:45:59;21.80;71.40
22456;DHT22;11395;53.204;6.502;2022-10-16T03:48:26;21.80;71.40
22456;DHT22;11395;53.204;6.502;2022-10-16T03:50:52;21.80;71.40
22456;DHT22;11395;53.204;6.502;2022-10-16T03:53:18;21.80;71.40
22456;DHT22;11395;53.204;6.502;2022-10-16T03:55:44;21.80;71.20
22456;DHT22;11395;53.204;6.502;2022-10-16T03:58:11;21.80;71.20
22456;DHT22;11395;53.204;6.502;2022-10-16T04:00:44;21.80;71.20
22456;DHT22;11395;53.204;6.502;2022-10-16T04:03:11;21.80;71.20
22456;DHT22;11395;53.204;6.502;2022-10-16T04:05:37;21.90;71.20
22456;DHT22;11395;53.204;6.502;2022-10-16T04:08:04;21.90;71.10
22456;DHT22;11395;53.204;6.502;2022-10-16T04:10:30;22.00;71.10
22456;DHT22;11395;53.204;6.502;2022-10-16T04:12:56;22.00;71.10
22456;DHT22;11395;53.204;6.502;2022-10-16T04:15:23;22.10;71.10
22456;DHT22;11395;53.204;6.502;2022-10-16T04:17:50;22.20;71.00
22456;DHT22;11395;53.204;6.502;2022-10-16T04:20:17;22.30;71.10
22456;DHT22;11395;53.204;6.502;2022-10-16T04:22:43;22.40;70.90
22456;DHT22;11395;53.204;6.502;2022-10-16T04:25:09;22.50;70.80
22456;DHT22;11395;53.204;6.502;2022-10-16T04:27:37;22.60;70.60
22456;DHT22;11395;53.204;6.502;2022-10-16T04:30:04;22.70;70.50
22456;DHT22;11395;53.204;6.502;2022-10-16T04:32:31;22.80;70.40
22456;DHT22;11395;53.204;6.502;2022-10-16T04:34:57;22.90;70.20
22456;DHT22;11395;53.204;6.502;2022-10-16T04:37:24;23.00;70.00
22456;DHT22;11395;53.204;6.502;2022-10-16T04:39:51;23.10;69.90
22456;DHT22;11395;53.204;6.502;2022-10-16T04:42:18;23.20;69.80
22456;DHT22;11395;53.204;6.502;2022-10-16T04:44:45;23.20;69.60
22456;DHT22;11395;53.204;6.502;2022-10-16T04:47:11;23.30;69.40
22456;DHT22;11395;53.204;6.502;2022-10-16T04:49:37;23.40;69.30
22456;DHT22;11395;53.204;6.502;2022-10-16T04:52:04;23.40;69.10
22456;DHT22;11395;53.204;6.502;2022-10-16T04:54:30;23.50;69.10
22456;DHT22;11395;53.204;6.502;2022-10-16T04:56:56;23.50;68.80
22456;DHT22;11395;53.204;6.502;2022-10-16T04:59:23;23.60;68.70
22456;DHT22;11395;53.204;6.502;2022-10-16T05:01:49;23.60;68.80
22456;DHT22;11395;53.204;6.502;2022-10-16T05:04:16;23.70;68.70
22456;DHT22;11395;53.204;6.502;2022-10-16T05:06:42;23.70;68.50
22456;DHT22;11395;53.204;6.502;2022-10-16T05:09:09;23.70;68.20
22456;DHT22;11395;53.204;6.502;2022-10-16T05:11:35;23.70;68.40
22456;DHT22;11395;53.204;6.502;2022-10-16T05:14:02;23.70;68.10
22456;DHT22;11395;53.204;6.502;2022-10-16T05:16:28;23.80;68.30
22456;DHT22;11395;53.204;6.502;2022-10-16T05:18:56;23.80;68.20
22456;DHT22;11395;53.204;6.502;2022-10-16T05:21:22;23.80;68.00
22456;DHT22;11395;53.204;6.502;2022-10-16T05:23:48;23.80;68.10
22456;DHT22;11395;53.204;6.502;2022-10-16T05:26:15;23.80;68.00
22456;DHT22;11395;53.204;6.502;2022-10-16T05:28:41;23.80;68.00
22456;DHT22;11395;53.204;6.502;2022-10-16T05:31:08;23.90;68.00
22456;DHT22;11395;53.204;6.502;2022-10-16T05:33:35;23.90;68.00
22456;DHT22;11395;53.204;6.502;2022-10-16T05:36:10;24.00;68.10
22456;DHT22;11395;53.204;6.502;2022-10-16T05:38:37;24.00;67.90
22456;DHT22;11395;53.204;6.502;2022-10-16T05:41:04;24.10;68.00
22456;DHT22;11395;53.204;6.502;2022-10-16T05:43:31;24.10;67.60
22456;DHT22;11395;53.204;6.502;2022-10-16T05:46:03;24.20;67.80
22456;DHT22;11395;53.204;6.502;2022-10-16T05:48:29;24.20;67.50
22456;DHT22;11395;53.204;6.502;2022-10-16T05:51:00;24.30;67.50
22456;DHT22;11395;53.204;6.502;2022-10-16T05:53:28;24.40;67.50
22456;DHT22;11395;53.204;6.502;2022-10-16T05:55:55;24.40;67.40
22456;DHT22;11395;53.204;6.502;2022-10-16T05:58:22;24.50;67.20
22456;DHT22;11395;53.204;6.502;2022-10-16T06:00:58;24.60;67.00
22456;DHT22;11395;53.204;6.502;2022-10-16T06:03:25;24.60;66.90
22456;DHT22;11395;53.204;6.502;2022-10-16T06:05:53;24.60;66.70
22456;DHT22;11395;53.204;6.502;2022-10-16T06:08:21;24.60;66.60
22456;DHT22;11395;53.204;6.502;2022-10-16T06:10:48;24.60;66.60
22456;DHT22;11395;53.204;6.502;2022-10-16T06:13:14;24.70;66.50
22456;DHT22;11395;53.204;6.502;2022-10-16T06:15:43;24.70;66.50
22456;DHT22;11395;53.204;6.502;2022-10-16T06:18:09;24.70;66.50
22456;DHT22;11395;53.204;6.502;2022-10-16T06:20:36;24.70;66.50
22456;DHT22;11395;53.204;6.502;2022-10-16T06:23:03;24.70;66.50
22456;DHT22;11395;53.204;6.502;2022-10-16T06:25:31;24.70;66.10
22456;DHT22;11395;53.204;6.502;2022-10-16T06:27:57;24.60;66.10
22456;DHT22;11395;53.204;6.502;2022-10-16T06:30:23;24.60;66.10
22456;DHT22;11395;53.204;6.502;2022-10-16T06:32:49;24.60;66.00
22456;DHT22;11395;53.204;6.502;2022-10-16T06:35:16;24.60;66.20
22456;DHT22;11395;53.204;6.502;2022-10-16T06:37:42;24.60;66.00
22456;DHT22;11395;53.204;6.502;2022-10-16T06:40:08;24.60;66.20
22456;DHT22;11395;53.204;6.502;2022-10-16T06:42:34;24.50;66.20
22456;DHT22;11395;53.204;6.502;2022-10-16T06:45:01;24.50;66.10
22456;DHT22;11395;53.204;6.502;2022-10-16T06:47:27;24.40;66.10
22456;DHT22;11395;53.204;6.502;2022-10-16T06:49:53;24.40;66.10
22456;DHT22;11395;53.204;6.502;2022-10-16T06:52:20;24.40;66.20
22456;DHT22;11395;53.204;6.502;2022-10-16T06:54:46;24.40;66.20
22456;DHT22;11395;53.204;6.502;2022-10-16T06:57:12;24.40;66.30
22456;DHT22;11395;53.204;6.502;2022-10-16T06:59:38;24.40;66.20
22456;DHT22;11395;53.204;6.502;2022-10-16T07:02:04;24.40;66.40
22456;DHT22;11395;53.204;6.502;2022-10-16T07:04:31;24.30;66.30
22456;DHT22;11395;53.204;6.502;2022-10-16T07:06:57;24.30;66.40
22456;DHT22;11395;53.204;6.502;2022-10-16T07:09:25;24.30;66.50
22456;DHT22;11395;53.204;6.502;2022-10-16T07:11:52;24.40;66.70
22456;DHT22;11395;53.204;6.502;2022-10-16T07:14:20;24.30;66.70
22456;DHT22;11395;53.204;6.502;2022-10-16T07:16:47;24.40;66.80
22456;DHT22;11395;53.204;6.502;2022-10-16T07:19:14;24.40;66.80
22456;DHT22;11395;53.204;6.502;2022-10-16T07:21:41;24.40;66.80
22456;DHT22;11395;53.204;6.502;2022-10-16T07:24:16;24.50;66.80
22456;DHT22;11395;53.204;6.502;2022-10-16T07:26:43;24.50;66.80
22456;DHT22;11395;53.204;6.502;2022-10-16T07:29:19;24.50;67.40
22456;DHT22;11395;53.204;6.502;2022-10-16T07:31:47;24.50;66.60
22456;DHT22;11395;53.204;6.502;2022-10-16T07:34:15;24.60;66.40
22456;DHT22;11395;53.204;6.502;2022-10-16T07:36:42;24.60;66.60
22456;DHT22;11395;53.204;6.502;2022-10-16T07:39:08;24.60;66.40
22456;DHT22;11395;53.204;6.502;2022-10-16T07:41:35;24.60;66.50
22456;DHT22;11395;53.204;6.502;2022-10-16T07:44:03;24.60;66.30
22456;DHT22;11395;53.204;6.502;2022-10-16T07:46:30;24.60;66.30
22456;DHT22;11395;53.204;6.502;2022-10-16T07:48:57;24.60;66.30
22456;DHT22;11395;53.204;6.502;2022-10-16T07:51:24;24.70;66.50
22456;DHT22;11395;53.204;6.502;2022-10-16T07:53:52;24.70;66.40
22456;DHT22;11395;53.204;6.502;2022-10-16T07:56:19;24.70;66.40
22456;DHT22;11395;53.204;6.502;2022-10-16T07:58:45;24.60;66.30
22456;DHT22;11395;53.204;6.502;2022-10-16T08:01:14;24.70;66.30
22456;DHT22;11395;53.204;6.502;2022-10-16T08:03:45;24.60;66.30
22456;DHT22;11395;53.204;6.502;2022-10-16T08:06:11;24.70;66.50
22456;DHT22;11395;53.204;6.502;2022-10-16T08:08:38;24.70;66.50
22456;DHT22;11395;53.204;6.502;2022-10-16T08:11:04;24.70;66.50
22456;DHT22;11395;53.204;6.502;2022-10-16T08:13:31;24.70;66.40
22456;DHT22;11395;53.204;6.502;2022-10-16T08:15:57;24.70;66.50
22456;DHT22;11395;53.204;6.502;2022-10-16T08:18:24;24.70;66.30
22456;DHT22;11395;53.204;6.502;2022-10-16T08:20:58;24.80;66.20
22456;DHT22;11395;53.204;6.502;2022-10-16T08:23:26;24.70;65.90
22456;DHT22;11395;53.204;6.502;2022-10-16T08:25:54;24.80;66.30
22456;DHT22;11395;53.204;6.502;2022-10-16T08:28:21;24.90;66.10
22456;DHT22;11395;53.204;6.502;2022-10-16T08:30:47;24.90;65.70
22456;DHT22;11395;53.204;6.502;2022-10-16T08:33:14;25.00;65.80
22456;DHT22;11395;53.204;6.502;2022-10-16T08:35:40;25.00;66.10
22456;DHT22;11395;53.204;6.502;2022-10-16T08:38:06;25.00;65.90
22456;DHT22;11395;53.204;6.502;2022-10-16T08:40:36;25.00;66.00
22456;DHT22;11395;53.204;6.502;2022-10-16T08:43:59;25.10;65.90
22456;DHT22;11395;53.204;6.502;2022-10-16T08:49:11;25.10;65.70
22456;DHT22;11395;53.204;6.502;2022-10-16T08:51:40;25.20;65.90
22456;DHT22;11395;53.204;6.502;2022-10-16T08:54:26;25.20;65.60
22456;DHT22;11395;53.204;6.502;2022-10-16T08:57:00;25.20;65.60
22456;DHT22;11395;53.204;6.502;2022-10-16T08:59:30;25.20;65.50
22456;DHT22;11395;53.204;6.502;2022-10-16T09:01:57;25.20;65.30
22456;DHT22;11395;53.204;6.502;2022-10-16T09:04:45;25.20;65.30
22456;DHT22;11395;53.204;6.502;2022-10-16T09:10:27;25.20;65.20
22456;DHT22;11395;53.204;6.502;2022-10-16T09:13:13;25.20;65.10
22456;DHT22;11395;53.204;6.502;2022-10-16T09:16:12;25.20;65.10
22456;DHT22;11395;53.204;6.502;2022-10-16T09:21:19;25.30;64.90
22456;DHT22;11395;53.204;6.502;2022-10-16T09:23:47;25.30;64.90
22456;DHT22;11395;53.204;6.502;2022-10-16T09:26:15;25.30;65.00
22456;DHT22;11395;53.204;6.502;2022-10-16T09:28:42;25.20;65.10
22456;DHT22;11395;53.204;6.502;2022-10-16T09:31:19;25.20;65.10
22456;DHT22;11395;53.204;6.502;2022-10-16T09:33:52;25.10;65.30
22456;DHT22;11395;53.204;6.502;2022-10-16T09:36:20;25.10;65.30
22456;DHT22;11395;53.204;6.502;2022-10-16T09:38:47;25.10;65.30
22456;DHT22;11395;53.204;6.502;2022-10-16T09:41:21;25.10;65.30
22456;DHT22;11395;53.204;6.502;2022-10-16T09:43:54;25.10;65.40
22456;DHT22;11395;53.204;6.502;2022-10-16T09:46:45;25.10;65.40
22456;DHT22;11395;53.204;6.502;2022-10-16T09:49:25;25.10;65.30
22456;DHT22;11395;53.204;6.502;2022-10-16T09:52:10;25.00;65.40
22456;DHT22;11395;53.204;6.502;2022-10-16T09:54:37;25.00;65.40
22456;DHT22;11395;53.204;6.502;2022-10-16T09:57:10;25.00;65.40
22456;DHT22;11395;53.204;6.502;2022-10-16T09:59:49;25.00;65.50
22456;DHT22;11395;53.204;6.502;2022-10-16T10:02:35;25.00;65.50
22456;DHT22;11395;53.204;6.502;2022-10-16T10:05:21;25.10;65.60
22456;DHT22;11395;53.204;6.502;2022-10-16T10:08:02;25.00;65.50
22456;DHT22;11395;53.204;6.502;2022-10-16T10:10:36;25.10;65.60
22456;DHT22;11395;53.204;6.502;2022-10-16T10:13:03;25.10;65.50
22456;DHT22;11395;53.204;6.502;2022-10-16T10:15:36;25.00;65.40
22456;DHT22;11395;53.204;6.502;2022-10-16T10:18:02;25.00;65.50
22456;DHT22;11395;53.204;6.502;2022-10-16T10:20:36;25.10;65.50
22456;DHT22;11395;53.204;6.502;2022-10-16T10:23:34;25.00;65.40
22456;DHT22;11395;53.204;6.502;2022-10-16T10:28:40;25.10;65.40
22456;DHT22;11395;53.204;6.502;2022-10-16T10:40:44;25.10;65.40
22456;DHT22;11395;53.204;6.502;2022-10-16T10:43:20;25.10;65.40
22456;DHT22;11395;53.204;6.502;2022-10-16T10:46:02;25.00;65.40
22456;DHT22;11395;53.204;6.502;2022-10-16T10:48:54;25.10;65.50
22456;DHT22;11395;53.204;6.502;2022-10-16T10:54:36;25.10;65.50
22456;DHT22;11395;53.204;6.502;2022-10-16T10:57:35;25.10;65.60
22456;DHT22;11395;53.204;6.502;2022-10-16T11:00:28;25.00;65.40
22456;DHT22;11395;53.204;6.502;2022-10-16T11:06:20;25.00;65.60
22456;DHT22;11395;53.204;6.502;2022-10-16T11:12:00;25.00;65.70
22456;DHT22;11395;53.204;6.502;2022-10-16T11:17:33;25.00;66.60
22456;DHT22;11395;53.204;6.502;2022-10-16T11:20:25;25.10;66.30
22456;DHT22;11395;53.204;6.502;2022-10-16T11:23:32;25.10;66.70
22456;DHT22;11395;53.204;6.502;2022-10-16T11:26:14;25.20;67.40
22456;DHT22;11395;53.204;6.502;2022-10-16T11:28:48;25.20;67.60
22456;DHT22;11395;53.204;6.502;2022-10-16T11:37:14;25.20;67.90
22456;DHT22;11395;53.204;6.502;2022-10-16T11:39:44;25.30;68.20
22456;DHT22;11395;53.204;6.502;2022-10-16T11:42:21;25.30;69.30
22456;DHT22;11395;53.204;6.502;2022-10-16T11:45:51;25.30;68.30
22456;DHT22;11395;53.204;6.502;2022-10-16T11:48:04;25.40;68.20
22456;DHT22;11395;53.204;6.502;2022-10-16T11:50:48;25.40;68.50
22456;DHT22;11395;53.204;6.502;2022-10-16T11:53:38;25.40;68.40
22456;DHT22;11395;53.204;6.502;2022-10-16T11:56:13;25.40;67.90
22456;DHT22;11395;53.204;6.502;2022-10-16T11:58:58;25.50;67.70
22456;DHT22;11395;53.204;6.502;2022-10-16T12:01:30;25.40;67.70
22456;DHT22;11395;53.204;6.502;2022-10-16T12:04:06;25.40;67.40
22456;DHT22;11395;53.204;6.502;2022-10-16T12:06:44;25.40;67.40
22456;DHT22;11395;53.204;6.502;2022-10-16T12:11:47;25.50;67.30
22456;DHT22;11395;53.204;6.502;2022-10-16T12:19:22;25.50;67.10
22456;DHT22;11395;53.204;6.502;2022-10-16T12:21:54;25.50;67.00
22456;DHT22;11395;53.204;6.502;2022-10-16T12:27:02;25.60;67.00
22456;DHT22;11395;53.204;6.502;2022-10-16T12:29:33;25.60;66.90
22456;DHT22;11395;53.204;6.502;2022-10-16T12:32:04;25.60;66.90
22456;DHT22;11395;53.204;6.502;2022-10-16T12:34:58;25.60;66.80
22456;DHT22;11395;53.204;6.502;2022-10-16T12:37:27;25.70;66.80
22456;DHT22;11395;53.204;6.502;2022-10-16T12:39:56;25.70;66.80
22456;DHT22;11395;53.204;6.502;2022-10-16T12:44:53;25.70;66.70
22456;DHT22;11395;53.204;6.502;2022-10-16T12:47:34;25.70;66.60
22456;DHT22;11395;53.204;6.502;2022-10-16T12:50:33;25.70;66.60
22456;DHT22;11395;53.204;6.502;2022-10-16T12:53:01;25.80;66.70
22456;DHT22;11395;53.204;6.502;2022-10-16T12:55:40;25.80;66.50
22456;DHT22;11395;53.204;6.502;2022-10-16T12:58:24;25.80;66.60
22456;DHT22;11395;53.204;6.502;2022-10-16T13:00:57;25.80;67.40
22456;DHT22;11395;53.204;6.502;2022-10-16T13:23:13;25.90;65.80
22456;DHT22;11395;53.204;6.502;2022-10-16T13:28:28;25.90;64.40
22456;DHT22;11395;53.204;6.502;2022-10-16T13:31:00;25.90;64.30
22456;DHT22;11395;53.204;6.502;2022-10-16T13:33:34;25.80;64.20
22456;DHT22;11395;53.204;6.502;2022-10-16T13:36:02;25.80;64.00
22456;DHT22;11395;53.204;6.502;2022-10-16T13:38:34;25.80;64.10
22456;DHT22;11395;53.204;6.502;2022-10-16T13:41:02;25.80;64.10
22456;DHT22;11395;53.204;6.502;2022-10-16T13:46:04;25.70;64.00
22456;DHT22;11395;53.204;6.502;2022-10-16T13:48:32;25.70;64.10
22456;DHT22;11395;53.204;6.502;2022-10-16T13:51:14;25.70;64.30
22456;DHT22;11395;53.204;6.502;2022-10-16T13:53:41;25.70;64.20
22456;DHT22;11395;53.204;6.502;2022-10-16T13:56:12;25.70;64.30
22456;DHT22;11395;53.204;6.502;2022-10-16T13:58:38;25.60;64.30
22456;DHT22;11395;53.204;6.502;2022-10-16T14:01:15;25.60;64.40
22456;DHT22;11395;53.204;6.502;2022-10-16T14:03:42;25.60;64.40
22456;DHT22;11395;53.204;6.502;2022-10-16T14:06:16;25.60;64.40
22456;DHT22;11395;53.204;6.502;2022-10-16T14:08:45;25.60;64.40
22456;DHT22;11395;53.204;6.502;2022-10-16T14:11:21;25.60;64.50
22456;DHT22;11395;53.204;6.502;2022-10-16T14:13:50;25.50;64.40
22456;DHT22;11395;53.204;6.502;2022-10-16T14:16:22;25.50;64.40
22456;DHT22;11395;53.204;6.502;2022-10-16T14:19:18;25.50;64.40
22456;DHT22;11395;53.204;6.502;2022-10-16T14:21:44;25.50;64.50
22456;DHT22;11395;53.204;6.502;2022-10-16T14:24:12;25.50;64.40
22456;DHT22;11395;53.204;6.502;2022-10-16T14:26:45;25.50;64.50
22456;DHT22;11395;53.204;6.502;2022-10-16T14:29:17;25.50;64.50
22456;DHT22;11395;53.204;6.502;2022-10-16T14:37:01;25.40;64.40
22456;DHT22;11395;53.204;6.502;2022-10-16T14:39:33;25.40;64.30
22456;DHT22;11395;53.204;6.502;2022-10-16T14:41:59;25.30;64.50
22456;DHT22;11395;53.204;6.502;2022-10-16T14:44:33;25.30;64.40
22456;DHT22;11395;53.204;6.502;2022-10-16T14:47:12;25.30;64.60
22456;DHT22;11395;53.204;6.502;2022-10-16T14:49:41;25.30;64.90
22456;DHT22;11395;53.204;6.502;2022-10-16T14:52:12;25.30;65.20
22456;DHT22;11395;53.204;6.502;2022-10-16T14:54:38;25.30;65.40
22456;DHT22;11395;53.204;6.502;2022-10-16T14:57:05;25.30;65.50
22456;DHT22;11395;53.204;6.502;2022-10-16T14:59:37;25.20;65.60
22456;DHT22;11395;53.204;6.502;2022-10-16T15:02:27;25.30;65.70
22456;DHT22;11395;53.204;6.502;2022-10-16T15:04:54;25.20;65.70
22456;DHT22;11395;53.204;6.502;2022-10-16T15:07:21;25.20;65.70
22456;DHT22;11395;53.204;6.502;2022-10-16T15:09:47;25.20;65.80
22456;DHT22;11395;53.204;6.502;2022-10-16T15:12:13;25.20;65.80
22456;DHT22;11395;53.204;6.502;2022-10-16T15:14:39;25.30;65.80
22456;DHT22;11395;53.204;6.502;2022-10-16T15:17:11;25.20;65.80
22456;DHT22;11395;53.204;6.502;2022-10-16T15:19:38;25.30;65.90
22456;DHT22;11395;53.204;6.502;2022-10-16T15:22:04;25.30;65.90
22456;DHT22;11395;53.204;6.502;2022-10-16T15:24:30;25.30;65.90
22456;DHT22;11395;53.204;6.502;2022-10-16T15:26:56;25.30;65.80
22456;DHT22;11395;53.204;6.502;2022-10-16T15:29:23;25.30;65.80
22456;DHT22;11395;53.204;6.502;2022-10-16T15:31:54;25.30;65.80
22456;DHT22;11395;53.204;6.502;2022-10-16T15:34:20;25.30;65.80
22456;DHT22;11395;53.204;6.502;2022-10-16T15:36:46;25.20;65.80
22456;DHT22;11395;53.204;6.502;2022-10-16T15:39:20;25.30;65.80
22456;DHT22;11395;53.204;6.502;2022-10-16T15:41:47;25.30;65.80
22456;DHT22;11395;53.204;6.502;2022-10-16T15:44:17;25.20;65.70
22456;DHT22;11395;53.204;6.502;2022-10-16T15:46:46;25.20;65.70
22456;DHT22;11395;53.204;6.502;2022-10-16T15:49:15;25.10;65.60
22456;DHT22;11395;53.204;6.502;2022-10-16T15:51:42;25.20;65.80
22456;DHT22;11395;53.204;6.502;2022-10-16T15:54:09;25.10;65.70
22456;DHT22;11395;53.204;6.502;2022-10-16T15:56:35;25.10;65.80
22456;DHT22;11395;53.204;6.502;2022-10-16T15:59:03;25.10;65.80
22456;DHT22;11395;53.204;6.502;2022-10-16T16:01:35;25.10;65.90
22456;DHT22;11395;53.204;6.502;2022-10-16T16:04:04;25.10;65.90
22456;DHT22;11395;53.204;6.502;2022-10-16T16:06:33;25.00;65.90
22456;DHT22;11395;53.204;6.502;2022-10-16T16:09:00;25.00;66.00
22456;DHT22;11395;53.204;6.502;2022-10-16T16:11:26;24.90;66.10
22456;DHT22;11395;53.204;6.502;2022-10-16T16:13:53;24.90;66.20
22456;DHT22;11395;53.204;6.502;2022-10-16T16:16:21;24.80;66.40
22456;DHT22;11395;53.204;6.502;2022-10-16T16:18:47;24.80;66.80
22456;DHT22;11395;53.204;6.502;2022-10-16T16:21:15;24.70;67.10
22456;DHT22;11395;53.204;6.502;2022-10-16T16:23:41;24.70;66.90
22456;DHT22;11395;53.204;6.502;2022-10-16T16:28:37;24.70;66.90
22456;DHT22;11395;53.204;6.502;2022-10-16T16:31:04;24.60;66.90
22456;DHT22;11395;53.204;6.502;2022-10-16T16:33:30;24.60;67.40
22456;DHT22;11395;53.204;6.502;2022-10-16T16:36:02;24.60;67.40
22456;DHT22;11395;53.204;6.502;2022-10-16T16:38:29;24.60;67.40
22456;DHT22;11395;53.204;6.502;2022-10-16T16:40:56;24.60;67.40
22456;DHT22;11395;53.204;6.502;2022-10-16T16:43:27;24.60;67.30
22456;DHT22;11395;53.204;6.502;2022-10-16T16:45:54;24.60;67.50
22456;DHT22;11395;53.204;6.502;2022-10-16T16:48:21;24.50;67.50
22456;DHT22;11395;53.204;6.502;2022-10-16T16:50:47;24.50;67.40
22456;DHT22;11395;53.204;6.502;2022-10-16T16:53:14;24.50;67.60
22456;DHT22;11395;53.204;6.502;2022-10-16T16:55:41;24.50;67.70
22456;DHT22;11395;53.204;6.502;2022-10-16T16:58:07;24.50;67.60
22456;DHT22;11395;53.204;6.502;2022-10-16T17:00:33;24.50;67.60
22456;DHT22;11395;53.204;6.502;2022-10-16T17:03:00;24.40;67.60
22456;DHT22;11395;53.204;6.502;2022-10-16T17:05:26;24.40;67.60
22456;DHT22;11395;53.204;6.502;2022-10-16T17:07:53;24.40;67.60
22456;DHT22;11395;53.204;6.502;2022-10-16T17:10:20;24.40;67.70
22456;DHT22;11395;53.204;6.502;2022-10-16T17:12:46;24.40;67.70
22456;DHT22;11395;53.204;6.502;2022-10-16T17:15:13;24.30;67.50
22456;DHT22;11395;53.204;6.502;2022-10-16T17:17:39;24.30;67.70
22456;DHT22;11395;53.204;6.502;2022-10-16T17:20:06;24.30;67.50
22456;DHT22;11395;53.204;6.502;2022-10-16T17:22:34;24.30;67.50
22456;DHT22;11395;53.204;6.502;2022-10-16T17:25:01;24.30;67.60
22456;DHT22;11395;53.204;6.502;2022-10-16T17:27:29;24.30;67.60
22456;DHT22;11395;53.204;6.502;2022-10-16T17:29:56;24.20;68.60
22456;DHT22;11395;53.204;6.502;2022-10-16T17:32:22;24.20;68.30
22456;DHT22;11395;53.204;6.502;2022-10-16T17:34:49;24.20;68.10
22456;DHT22;11395;53.204;6.502;2022-10-16T17:37:15;24.20;67.90
22456;DHT22;11395;53.204;6.502;2022-10-16T17:39:42;24.20;68.10